Time;durP1;ratioP1;P1;durP2;ratioP2;P2;SDS_P1;SDS_P2;PMS_P1;PMS_P2;Temp;Humidity;BMP_temperature;BMP_pressure;BME280_temperature;BME280_humidity;BME280_pressure;Samples;Min_cycle;Max_cycle;Signal;HPM_P1;HPM_P2
2021/07/12 00:07:10;;;;;;;1.25;1.10;;;24.50;99.90;;;;;;20826283;28;20317;-69
2021/07/12 00:17:14;;;;;;;1.83;1.38;;;24.50;99.90;;;;;;20825245;28;20229;-68
2021/07/12 00:27:20;;;;;;;1.65;1.20;;;24.40;99.90;;;;;;20824476;28;20186;-69
2021/07/12 00:37:23;;;;;;;11.93;1.88;;;23.90;99.90;;;;;;20823318;28;20625;-68
2021/07/12 00:47:28;;;;;;;0.57;0.43;;;23.70;99.90;;;;;;20823099;28;20198;-69
2021/07/12 00:57:32;;;;;;;1.00;0.63;;;23.40;99.90;;;;;;20821642;28;20257;-68
2021/07/12 01:07:36;;;;;;;1.80;0.83;;;23.30;99.90;;;;;;20822334;28;20606;-68
2021/07/12 01:17:50;;;;;;;0.63;0.63;;;23.20;99.90;;;;;;20842771;28;20640;-70
2021/07/12 01:28:31;;;;;;;1.53;0.73;;;23.20;99.90;;;;;;20820255;28;20224;-68
2021/07/12 01:38:45;;;;;;;0.83;0.83;;;23.20;99.90;;;;;;20816612;28;20698;-69
2021/07/12 01:48:58;;;;;;;0.57;0.53;;;23.20;99.90;;;;;;20818643;28;20237;-69
2021/07/12 02:09:26;;;;;;;0.33;0.33;;;22.90;99.90;;;;;;20815641;28;20301;-68
2021/07/12 02:19:32;;;;;;;2.10;0.60;;;23.10;99.90;;;;;;20817332;28;20226;-68
2021/07/12 02:29:37;;;;;;;0.20;0.00;;;23.00;99.90;;;;;;20832484;28;20228;-67
2021/07/12 02:39:46;;;;;;;2.93;0.63;;;23.00;99.90;;;;;;20815711;28;20576;-68
2021/07/12 02:49:50;;;;;;;0.47;0.40;;;22.90;99.90;;;;;;20815833;28;20198;-68
2021/07/12 02:59:55;;;;;;;0.70;0.40;;;22.90;99.90;;;;;;20848214;22;20623;-69
2021/07/12 03:10:04;;;;;;;0.47;0.47;;;23.00;99.90;;;;;;20927272;28;20216;-69
2021/07/12 03:20:11;;;;;;;1.07;0.63;;;23.00;99.90;;;;;;20911470;28;20370;-68
2021/07/12 03:30:15;;;;;;;1.00;0.55;;;23.10;99.90;;;;;;20911471;28;20531;-69
2021/07/12 03:40:21;;;;;;;0.30;0.30;;;23.40;99.90;;;;;;20910845;28;20221;-69
2021/07/12 03:50:27;;;;;;;0.45;0.45;;;24.20;99.90;;;;;;20909356;28;20193;-69
2021/07/12 04:00:32;;;;;;;2.47;0.40;;;24.10;99.90;;;;;;20917408;28;20248;-69
2021/07/12 04:10:37;;;;;;;1.13;1.02;;;23.80;99.90;;;;;;20917679;28;20202;-68
2021/07/12 04:20:42;;;;;;;0.43;0.25;;;23.90;99.90;;;;;;20907569;28;20651;-68
2021/07/12 04:30:46;;;;;;;3.97;0.73;;;23.90;99.90;;;;;;20907046;28;20221;-68
2021/07/12 04:40:51;;;;;;;1.05;0.93;;;23.70;99.90;;;;;;20905467;28;20217;-69
2021/07/12 04:50:54;;;;;;;0.90;0.90;;;23.80;99.90;;;;;;20904797;28;20197;-69
2021/07/12 05:00:59;;;;;;;0.52;0.45;;;23.90;99.90;;;;;;20903757;28;20233;-69
2021/07/12 05:11:03;;;;;;;1.23;1.15;;;24.00;99.90;;;;;;20901114;28;20197;-69
2021/07/12 05:21:09;;;;;;;0.85;0.50;;;24.20;99.90;;;;;;20901235;28;20228;-69
2021/07/12 05:31:12;;;;;;;0.22;0.22;;;24.50;99.90;;;;;;20900805;28;20210;-68
2021/07/12 05:41:19;;;;;;;0.50;0.25;;;24.70;99.90;;;;;;20918463;28;20226;-68
2021/07/12 05:51:22;;;;;;;0.50;0.50;;;24.90;99.90;;;;;;20896315;28;20288;-66
2021/07/12 06:01:29;;;;;;;1.08;1.08;;;24.80;99.90;;;;;;20890570;28;20217;-64
2021/07/12 06:11:33;;;;;;;0.52;0.30;;;25.10;99.90;;;;;;20895818;28;20251;-67
2021/07/12 06:21:39;;;;;;;0.88;0.88;;;25.40;99.90;;;;;;20897065;28;20193;-67
2021/07/12 06:31:42;;;;;;;2.05;0.65;;;25.70;99.90;;;;;;20910278;28;20197;-66
2021/07/12 06:41:47;;;;;;;0.65;0.45;;;26.10;99.90;;;;;;20912473;28;20186;-68
2021/07/12 06:51:51;;;;;;;1.50;1.08;;;26.20;99.90;;;;;;20912184;28;20674;-68
2021/07/12 07:01:56;;;;;;;0.75;0.50;;;26.20;99.90;;;;;;20911019;28;20223;-66
2021/07/12 07:11:59;;;;;;;0.93;0.90;;;26.60;99.90;;;;;;20908912;28;20296;-66
2021/07/12 07:22:05;;;;;;;0.40;0.40;;;26.60;99.90;;;;;;20909353;28;20304;-69
2021/07/12 07:32:08;;;;;;;0.50;0.40;;;26.80;99.90;;;;;;20909336;28;20312;-68
2021/07/12 07:42:20;;;;;;;1.17;1.05;;;26.80;99.90;;;;;;20907210;28;20205;-69
2021/07/12 07:52:24;;;;;;;1.67;1.58;;;27.00;99.90;;;;;;20907812;28;20686;-70
2021/07/12 08:02:29;;;;;;;1.10;1.02;;;27.10;99.90;;;;;;20907283;28;20224;-69
2021/07/12 08:12:33;;;;;;;1.05;0.85;;;27.40;99.90;;;;;;20906261;28;20657;-69
2021/07/12 08:22:39;;;;;;;1.23;1.13;;;27.80;99.90;;;;;;20866418;28;20206;-68
2021/07/12 08:32:44;;;;;;;0.85;0.40;;;27.80;99.90;;;;;;20861864;28;20761;-69
2021/07/12 08:42:51;;;;;;;1.73;0.68;;;27.70;99.90;;;;;;20904578;28;20215;-70
2021/07/12 08:52:55;;;;;;;2.42;1.42;;;27.40;99.90;;;;;;20901996;28;20283;-66
2021/07/12 09:03:00;;;;;;;1.00;0.90;;;28.00;99.90;;;;;;20901780;28;20571;-67
2021/07/12 09:13:05;;;;;;;1.58;0.82;;;28.40;99.90;;;;;;20907204;28;20320;-68
2021/07/12 09:23:23;;;;;;;1.33;1.02;;;28.20;99.90;;;;;;20901718;28;20230;-67
2021/07/12 09:33:26;;;;;;;1.52;1.08;;;28.00;99.90;;;;;;20899816;28;20282;-67
2021/07/12 09:43:34;;;;;;;4.25;0.80;;;28.60;99.90;;;;;;20899549;28;20267;-66
2021/07/12 09:53:38;;;;;;;1.13;0.75;;;28.70;99.90;;;;;;20899683;28;20627;-67
2021/07/12 10:03:44;;;;;;;2.00;1.05;;;28.50;99.90;;;;;;20897085;28;20316;-66
2021/07/12 10:13:47;;;;;;;0.80;0.68;;;28.70;99.90;;;;;;20896341;28;20217;-66
2021/07/12 10:23:58;;;;;;;1.10;1.00;;;29.00;99.90;;;;;;20897720;28;20197;-66
2021/07/12 10:34:25;;;;;;;1.45;1.35;;;29.00;99.90;;;;;;20896165;28;20611;-67
2021/07/12 10:45:08;;;;;;;0.77;0.77;;;28.60;99.90;;;;;;20894904;28;20620;-67
2021/07/12 10:55:12;;;;;;;15.43;2.03;;;28.20;99.90;;;;;;20896787;28;20294;-67
2021/07/12 11:05:18;;;;;;;1.17;1.08;;;27.60;99.90;;;;;;20894416;28;20706;-66
2021/07/12 11:15:39;;;;;;;6.57;1.55;;;27.70;99.90;;;;;;20892443;28;20222;-66
2021/07/12 11:26:17;;;;;;;4.25;1.85;;;28.20;99.90;;;;;;20866248;28;20197;-69
2021/07/12 11:36:22;;;;;;;2.10;1.50;;;28.10;99.90;;;;;;20893485;28;20275;-67
2021/07/12 11:46:27;;;;;;;1.63;1.45;;;27.90;99.90;;;;;;20908823;28;20288;-68
2021/07/12 11:56:31;;;;;;;4.43;1.63;;;28.10;99.90;;;;;;20907165;28;20244;-67
2021/07/12 12:06:36;;;;;;;1.25;1.15;;;28.40;99.90;;;;;;20906271;28;20316;-69
2021/07/12 12:16:39;;;;;;;2.05;1.52;;;29.30;99.90;;;;;;20905937;28;20623;-67
2021/07/12 12:26:45;;;;;;;1.45;1.35;;;29.60;99.90;;;;;;20905961;28;20221;-67
2021/07/12 12:36:48;;;;;;;1.38;1.02;;;28.70;99.90;;;;;;20904950;28;20571;-69
2021/07/12 12:46:56;;;;;;;4.28;1.23;;;28.20;99.90;;;;;;20903808;28;20762;-70
2021/07/12 12:57:01;;;;;;;1.50;1.20;;;28.10;99.90;;;;;;20916833;28;20319;-70
2021/07/12 13:07:06;;;;;;;1.35;1.25;;;27.60;99.90;;;;;;20902875;28;20221;-69
2021/07/12 13:17:12;;;;;;;4.63;0.93;;;27.30;99.90;;;;;;20900023;28;20226;-68
2021/07/12 13:27:25;;;;;;;1.17;1.13;;;27.80;99.90;;;;;;20898336;28;20243;-68
2021/07/12 13:37:30;;;;;;;1.17;0.80;;;28.40;99.90;;;;;;20896293;28;20229;-69
2021/07/12 13:47:35;;;;;;;8.18;1.52;;;28.50;99.90;;;;;;20897438;28;20202;-68
2021/07/12 13:57:38;;;;;;;1.55;1.23;;;28.00;99.90;;;;;;20895165;28;20267;-67
2021/07/12 14:07:44;;;;;;;2.03;1.23;;;28.60;99.90;;;;;;20895331;28;20332;-67
2021/07/12 14:17:47;;;;;;;2.25;0.98;;;29.90;99.90;;;;;;20894883;28;20239;-68
2021/07/12 14:27:52;;;;;;;1.27;0.70;;;29.20;99.90;;;;;;20894616;28;20634;-67
2021/07/12 14:37:56;;;;;;;1.85;0.90;;;28.30;99.90;;;;;;20884776;28;20239;-67
2021/07/12 14:48:01;;;;;;;1.95;1.25;;;27.50;99.90;;;;;;20897296;28;20201;-68
2021/07/12 14:58:05;;;;;;;1.90;1.38;;;27.50;99.90;;;;;;20902821;28;20248;-68
2021/07/12 15:08:10;;;;;;;3.88;1.50;;;27.30;99.90;;;;;;20913326;28;20339;-68
2021/07/12 15:18:13;;;;;;;0.90;0.43;;;27.70;99.90;;;;;;20907621;28;20233;-66
2021/07/12 15:28:18;;;;;;;2.33;1.05;;;27.50;99.90;;;;;;20906397;28;20200;-68
2021/07/12 15:38:22;;;;;;;0.30;0.30;;;27.60;99.90;;;;;;20905688;28;20227;-67
2021/07/12 15:48:27;;;;;;;2.33;1.15;;;28.00;99.90;;;;;;20904891;28;20198;-68
2021/07/12 15:58:33;;;;;;;1.83;0.70;;;30.30;99.90;;;;;;20897980;28;20240;-67
2021/07/12 16:08:38;;;;;;;0.25;0.20;;;31.10;99.90;;;;;;20903037;28;20245;-67
2021/07/12 16:18:42;;;;;;;0.52;0.30;;;29.10;99.90;;;;;;20903480;28;20245;-68
2021/07/12 16:28:47;;;;;;;0.32;0.20;;;29.30;99.90;;;;;;20901961;28;20197;-68
2021/07/12 16:38:52;;;;;;;9.30;2.83;;;29.30;99.90;;;;;;20902641;28;20217;-68
2021/07/12 16:48:57;;;;;;;0.20;0.10;;;29.80;99.90;;;;;;20901979;28;20217;-67
2021/07/12 16:59:00;;;;;;;1.17;0.77;;;28.70;99.90;;;;;;20899104;28;20214;-67
2021/07/12 17:09:06;;;;;;;0.32;0.30;;;28.80;99.90;;;;;;20897446;28;20225;-68
2021/07/12 17:19:09;;;;;;;2.15;0.80;;;29.10;99.90;;;;;;20902880;28;20220;-67
2021/07/12 17:29:15;;;;;;;0.30;0.17;;;29.80;99.90;;;;;;20906360;28;20205;-68
2021/07/12 17:39:19;;;;;;;0.20;0.20;;;30.90;99.90;;;;;;20895868;28;20253;-67
2021/07/12 17:49:24;;;;;;;0.30;0.20;;;30.00;99.90;;;;;;20897351;28;20189;-67
2021/07/12 17:59:27;;;;;;;3.65;0.47;;;29.60;99.90;;;;;;20895438;28;20252;-68
2021/07/12 18:09:32;;;;;;;0.45;0.32;;;27.80;99.90;;;;;;20895007;28;20243;-70
2021/07/12 18:19:36;;;;;;;1.55;0.75;;;26.80;99.90;;;;;;20894893;28;20225;-69
2021/07/12 18:29:42;;;;;;;0.47;0.40;;;26.50;99.90;;;;;;20894267;28;20194;-67
2021/07/12 18:39:46;;;;;;;6.43;0.93;;;26.80;99.90;;;;;;20892303;28;20249;-67
2021/07/12 18:49:51;;;;;;;0.45;0.32;;;26.60;99.90;;;;;;20865582;28;20641;-66
2021/07/12 18:59:54;;;;;;;0.50;0.50;;;26.10;99.90;;;;;;20851384;28;20229;-67
2021/07/12 19:10:00;;;;;;;5.30;0.47;;;25.90;99.90;;;;;;20891859;28;20229;-67
2021/07/12 19:20:10;;;;;;;0.52;0.40;;;25.70;99.90;;;;;;20891639;28;20225;-67
2021/07/12 19:30:17;;;;;;;0.68;0.52;;;25.70;99.90;;;;;;20890031;28;20243;-66
2021/07/12 19:40:22;;;;;;;0.50;0.05;;;25.60;99.90;;;;;;20904182;28;20680;-66
2021/07/12 19:50:28;;;;;;;5.47;0.52;;;25.50;99.90;;;;;;20904503;28;20201;-67
2021/07/12 20:00:34;;;;;;;15.32;0.85;;;25.50;99.90;;;;;;20902855;28;20229;-68
2021/07/12 20:10:40;;;;;;;1.42;0.52;;;25.40;99.90;;;;;;20902935;28;20660;-67
2021/07/12 20:20:44;;;;;;;5.28;0.50;;;25.40;99.90;;;;;;20903082;28;20771;-66
2021/07/12 20:30:50;;;;;;;20.95;2.03;;;25.10;99.90;;;;;;20903157;28;20225;-68
2021/07/12 20:40:53;;;;;;;1.15;0.47;;;25.00;99.90;;;;;;20905613;28;20619;-71
2021/07/12 20:50:58;;;;;;;0.63;0.43;;;24.90;99.90;;;;;;20905100;28;20204;-68
2021/07/12 21:01:02;;;;;;;1.20;0.30;;;24.60;99.90;;;;;;20903794;28;20228;-67
2021/07/12 21:11:07;;;;;;;0.60;0.57;;;24.80;99.90;;;;;;20902417;28;20312;-68
2021/07/12 21:21:11;;;;;;;1.08;0.55;;;24.70;99.90;;;;;;20902062;28;20225;-69
2021/07/12 21:31:16;;;;;;;0.32;0.13;;;24.50;99.90;;;;;;20901555;28;20194;-68
2021/07/12 21:41:20;;;;;;;0.20;0.20;;;24.40;99.90;;;;;;20901321;28;20813;-68
2021/07/12 21:51:25;;;;;;;0.40;0.38;;;24.30;99.90;;;;;;20878832;28;20198;-68
2021/07/12 22:01:29;;;;;;;0.95;0.43;;;24.10;99.90;;;;;;20816336;28;20304;-68
2021/07/12 22:11:34;;;;;;;0.20;0.10;;;24.00;99.90;;;;;;20862537;28;20225;-68
2021/07/12 22:21:39;;;;;;;0.75;0.43;;;23.70;99.90;;;;;;20896889;28;20352;-68
2021/07/12 22:31:44;;;;;;;2.95;1.17;;;23.70;99.90;;;;;;20898260;28;20204;-66
2021/07/12 22:41:49;;;;;;;0.45;0.13;;;23.60;99.90;;;;;;20897228;28;20231;-68
2021/07/12 22:51:55;;;;;;;0.40;0.25;;;23.50;99.90;;;;;;20897255;28;20193;-69
2021/07/12 23:01:59;;;;;;;0.20;0.20;;;23.40;99.90;;;;;;20897682;28;20324;-68
2021/07/12 23:12:04;;;;;;;0.32;0.22;;;23.40;99.90;;;;;;20906816;28;20221;-69
2021/07/12 23:22:08;;;;;;;0.35;0.30;;;23.50;99.90;;;;;;20911996;28;20236;-69
2021/07/12 23:32:13;;;;;;;0.20;0.17;;;23.70;99.90;;;;;;20911657;28;20193;-69
2021/07/12 23:42:16;;;;;;;0.70;0.13;;;23.60;99.90;;;;;;20910561;28;20669;-68
2021/07/12 23:52:22;;;;;;;0.85;0.20;;;23.40;99.90;;;;;;20908921;28;20239;-68
